Time;durP1;ratioP1;P1;durP2;ratioP2;P2;SDS_P1;SDS_P2;PMS_P1;PMS_P2;Temp;Humidity;BMP_temperature;BMP_pressure;BME280_temperature;BME280_humidity;BME280_pressure;Samples;Min_cycle;Max_cycle;Signal;HPM_P1;HPM_P2
2022/10/31 00:02:00;;;;;;;17.98;10.25;;;13.30;99.90;;;;;;5113716;28;20050;-68
2022/10/31 00:04:26;;;;;;;18.17;11.05;;;13.20;99.90;;;;;;5115162;28;20055;-68
2022/10/31 00:06:51;;;;;;;18.20;10.18;;;13.20;99.90;;;;;;5113555;28;20050;-68
2022/10/31 00:09:17;;;;;;;18.25;10.63;;;13.20;99.90;;;;;;5113522;28;20071;-68
2022/10/31 00:11:42;;;;;;;18.70;11.38;;;13.10;99.90;;;;;;5113530;28;20122;-68
2022/10/31 00:14:08;;;;;;;28.38;12.88;;;13.10;99.90;;;;;;5113545;28;20122;-68
2022/10/31 00:16:33;;;;;;;18.63;11.68;;;13.10;99.90;;;;;;5113490;28;20048;-68
2022/10/31 00:19:02;;;;;;;22.20;14.02;;;13.10;99.90;;;;;;5113356;28;20040;-68
2022/10/31 00:21:29;;;;;;;26.20;13.35;;;13.10;99.90;;;;;;5114662;28;20039;-68
2022/10/31 00:23:55;;;;;;;20.88;13.32;;;13.00;99.90;;;;;;5114559;28;20043;-68
2022/10/31 00:26:20;;;;;;;19.50;12.45;;;13.00;99.90;;;;;;5113251;28;20052;-68
2022/10/31 00:28:46;;;;;;;21.17;13.25;;;13.00;99.90;;;;;;5113282;28;20102;-68
2022/10/31 00:31:13;;;;;;;23.58;14.13;;;13.00;99.90;;;;;;5114414;28;20157;-68
2022/10/31 00:33:40;;;;;;;24.10;15.63;;;13.00;99.90;;;;;;5113128;28;20598;-68
2022/10/31 00:36:07;;;;;;;23.83;13.88;;;13.00;99.90;;;;;;5113302;28;20104;-68
2022/10/31 00:38:33;;;;;;;23.52;13.75;;;12.90;99.90;;;;;;5114364;28;20039;-68
2022/10/31 00:40:58;;;;;;;23.23;14.23;;;12.90;99.90;;;;;;5114136;28;20035;-68
2022/10/31 00:43:24;;;;;;;27.65;13.27;;;12.90;99.90;;;;;;5112910;28;20126;-68
2022/10/31 00:45:50;;;;;;;24.70;14.30;;;12.90;99.90;;;;;;5112822;28;20082;-68
2022/10/31 00:48:16;;;;;;;21.40;14.13;;;12.90;99.90;;;;;;5113123;28;20092;-68
2022/10/31 00:50:41;;;;;;;23.35;13.77;;;12.90;99.90;;;;;;5113844;28;20499;-68
2022/10/31 00:53:07;;;;;;;26.25;14.93;;;12.90;99.90;;;;;;5114016;28;20040;-68
2022/10/31 00:55:33;;;;;;;21.70;14.38;;;12.80;99.90;;;;;;5113035;28;20096;-68
2022/10/31 00:57:58;;;;;;;22.23;13.73;;;12.80;99.90;;;;;;5112767;28;20193;-68
2022/10/31 01:00:24;;;;;;;23.33;14.05;;;12.80;99.90;;;;;;5112608;28;20055;-68
2022/10/31 01:02:50;;;;;;;24.73;14.55;;;12.70;99.90;;;;;;5112928;28;20074;-68
2022/10/31 01:05:16;;;;;;;22.02;14.02;;;12.70;99.90;;;;;;5114047;28;20453;-68
2022/10/31 01:07:41;;;;;;;22.30;12.52;;;12.70;99.90;;;;;;5112742;28;20042;-68
2022/10/31 01:10:08;;;;;;;16.38;12.55;;;12.70;99.90;;;;;;5114007;28;20024;-68
2022/10/31 01:12:43;;;;;;;21.98;13.27;;;12.60;99.90;;;;;;5112547;28;20088;-68
2022/10/31 01:15:11;;;;;;;26.80;14.55;;;12.60;99.90;;;;;;5114042;28;20040;-68
2022/10/31 01:17:36;;;;;;;22.30;12.63;;;12.60;99.90;;;;;;5112729;28;20078;-68
2022/10/31 01:20:03;;;;;;;18.58;12.55;;;12.60;99.90;;;;;;5113590;28;20484;-68
2022/10/31 01:22:29;;;;;;;23.38;12.85;;;12.60;99.90;;;;;;5112308;28;20039;-68
2022/10/31 01:24:54;;;;;;;21.77;13.18;;;12.60;99.90;;;;;;5112268;28;20042;-68
2022/10/31 01:27:20;;;;;;;22.65;13.73;;;12.60;99.90;;;;;;5113589;28;20032;-68
2022/10/31 01:29:45;;;;;;;21.48;13.60;;;12.60;99.90;;;;;;5112220;28;20042;-68
2022/10/31 01:32:11;;;;;;;19.48;12.77;;;12.50;99.90;;;;;;5112263;28;20044;-68
2022/10/31 01:34:36;;;;;;;23.77;13.75;;;12.50;99.90;;;;;;5095570;28;20035;-68
2022/10/31 01:37:02;;;;;;;21.65;12.57;;;12.50;99.90;;;;;;5112476;28;20440;-68
2022/10/31 01:39:27;;;;;;;22.15;13.50;;;12.50;99.90;;;;;;5112143;28;20569;-68
2022/10/31 01:41:55;;;;;;;21.00;13.43;;;12.50;99.90;;;;;;5112094;28;20126;-68
2022/10/31 01:44:20;;;;;;;22.35;13.00;;;12.50;99.90;;;;;;5112195;28;20117;-68
2022/10/31 01:47:05;;;;;;;18.77;12.25;;;12.50;99.90;;;;;;5112106;28;20161;-68
2022/10/31 01:49:40;;;;;;;25.98;13.77;;;12.50;99.90;;;;;;5112308;28;20044;-68
2022/10/31 01:52:27;;;;;;;20.05;13.50;;;12.50;99.90;;;;;;5113982;28;20078;-68
2022/10/31 01:55:20;;;;;;;22.35;14.00;;;12.50;99.90;;;;;;5112092;28;20122;-68
2022/10/31 01:57:49;;;;;;;23.52;13.20;;;12.40;99.90;;;;;;5112704;28;20055;-68
2022/10/31 02:00:15;;;;;;;17.83;13.10;;;12.40;99.90;;;;;;5113496;28;20377;-68
2022/10/31 02:02:42;;;;;;;23.83;13.82;;;12.40;99.90;;;;;;5114429;28;20040;-68
2022/10/31 02:05:12;;;;;;;24.42;15.40;;;12.30;99.90;;;;;;5117536;27;20043;-68
2022/10/31 02:07:44;;;;;;;23.55;13.90;;;12.30;99.90;;;;;;5117305;28;20047;-68
2022/10/31 02:10:10;;;;;;;21.40;13.30;;;12.30;99.90;;;;;;5115974;28;20115;-68
2022/10/31 02:12:38;;;;;;;20.65;13.27;;;12.30;99.90;;;;;;5116144;28;20135;-68
2022/10/31 02:15:04;;;;;;;21.70;14.07;;;12.20;99.90;;;;;;5115821;28;20051;-68
2022/10/31 02:17:31;;;;;;;22.08;15.93;;;12.20;99.90;;;;;;5116069;28;20085;-68
2022/10/31 02:20:12;;;;;;;21.65;13.15;;;12.20;99.90;;;;;;5117001;28;20508;-68
2022/10/31 02:23:03;;;;;;;23.35;14.85;;;12.20;99.90;;;;;;5115759;28;20504;-68
2022/10/31 02:25:58;;;;;;;20.08;13.30;;;12.20;99.90;;;;;;5115585;28;20047;-68
2022/10/31 02:28:53;;;;;;;26.48;15.20;;;12.20;99.90;;;;;;5115630;28;20051;-68
2022/10/31 02:31:26;;;;;;;20.80;14.68;;;12.20;99.90;;;;;;5115535;28;20092;-68
2022/10/31 02:34:02;;;;;;;20.05;15.43;;;12.20;99.90;;;;;;5115555;28;20078;-68
2022/10/31 02:36:37;;;;;;;18.50;12.48;;;12.10;99.90;;;;;;5098748;28;20074;-68
2022/10/31 02:39:13;;;;;;;18.60;13.05;;;12.10;99.90;;;;;;5115589;28;20047;-68
2022/10/31 02:41:48;;;;;;;22.73;14.57;;;12.10;99.90;;;;;;5116445;28;20051;-68
2022/10/31 02:45:02;;;;;;;24.13;14.05;;;12.00;99.90;;;;;;5115291;28;20511;-68
2022/10/31 02:47:32;;;;;;;17.80;12.55;;;12.00;99.90;;;;;;5092135;28;20533;-68
2022/10/31 02:50:02;;;;;;;18.67;12.32;;;12.00;99.90;;;;;;5099219;28;20395;-68
2022/10/31 02:52:29;;;;;;;18.65;11.90;;;12.00;99.90;;;;;;5115192;28;20047;-68
2022/10/31 02:54:55;;;;;;;16.52;12.45;;;11.90;99.90;;;;;;5098341;28;20509;-68
2022/10/31 02:57:34;;;;;;;19.75;12.75;;;11.90;99.90;;;;;;5116587;28;20123;-68
2022/10/31 03:00:06;;;;;;;17.85;11.98;;;11.90;99.90;;;;;;5115267;28;20070;-68
2022/10/31 03:03:28;;;;;;;16.65;12.23;;;11.90;99.90;;;;;;5114905;28;20039;-68
2022/10/31 03:06:15;;;;;;;16.92;11.43;;;11.90;99.90;;;;;;5016904;28;20046;-68
2022/10/31 03:08:54;;;;;;;15.38;11.05;;;11.80;99.90;;;;;;5016951;28;20500;-68
2022/10/31 03:11:26;;;;;;;14.82;10.70;;;11.80;99.90;;;;;;5033547;28;20053;-68
2022/10/31 03:13:56;;;;;;;17.88;11.45;;;11.70;99.90;;;;;;5033907;28;20387;-68
2022/10/31 03:16:46;;;;;;;16.08;11.50;;;11.70;99.90;;;;;;5016804;28;20057;-68
2022/10/31 03:19:20;;;;;;;19.25;12.18;;;11.60;99.90;;;;;;5016925;28;20045;-68
2022/10/31 03:21:49;;;;;;;17.20;11.75;;;11.60;99.90;;;;;;5016705;28;20060;-68
2022/10/31 03:24:15;;;;;;;19.02;12.20;;;11.60;99.90;;;;;;5016833;28;20062;-68
2022/10/31 03:26:45;;;;;;;18.42;11.15;;;11.60;99.90;;;;;;5033067;28;20041;-68
2022/10/31 03:29:15;;;;;;;16.52;11.10;;;11.50;99.90;;;;;;5033032;28;20487;-68
2022/10/31 03:31:52;;;;;;;15.45;11.02;;;11.50;99.90;;;;;;5016707;28;20462;-68
2022/10/31 03:34:20;;;;;;;14.45;11.52;;;11.50;99.90;;;;;;5016402;28;20061;-68
2022/10/31 03:36:49;;;;;;;18.17;11.57;;;11.50;99.90;;;;;;5082103;28;20111;-68
2022/10/31 03:39:17;;;;;;;21.15;12.00;;;11.40;99.90;;;;;;5114168;28;20097;-68
2022/10/31 03:41:46;;;;;;;17.95;11.40;;;11.40;99.90;;;;;;5114099;28;20054;-68
2022/10/31 03:44:16;;;;;;;15.90;11.73;;;11.40;99.90;;;;;;5114128;28;20531;-68
2022/10/31 03:46:43;;;;;;;17.02;11.65;;;11.40;99.90;;;;;;5114075;28;20048;-68
2022/10/31 03:49:09;;;;;;;16.85;10.25;;;11.40;99.90;;;;;;5115519;28;20028;-68
2022/10/31 03:51:50;;;;;;;15.48;10.35;;;11.40;99.90;;;;;;5114001;28;20046;-68
2022/10/31 03:54:26;;;;;;;15.15;10.30;;;11.30;99.90;;;;;;5115231;28;20507;-68
2022/10/31 03:56:57;;;;;;;18.58;11.70;;;11.30;99.90;;;;;;5113978;28;20509;-68
2022/10/31 03:59:33;;;;;;;17.75;11.55;;;11.30;99.90;;;;;;5114108;28;20047;-68
2022/10/31 04:02:03;;;;;;;12.48;10.18;;;11.30;99.90;;;;;;5113841;28;20035;-68
2022/10/31 04:04:30;;;;;;;14.63;10.48;;;11.30;99.90;;;;;;5115325;28;20051;-68
2022/10/31 04:06:58;;;;;;;14.57;10.00;;;11.20;99.90;;;;;;5113606;28;20047;-68
2022/10/31 04:09:27;;;;;;;15.82;11.00;;;11.20;99.90;;;;;;5113575;28;20040;-68
2022/10/31 04:11:55;;;;;;;14.05;10.38;;;11.20;99.90;;;;;;5113542;28;20517;-68
2022/10/31 04:14:24;;;;;;;14.98;10.80;;;11.20;99.90;;;;;;5113536;28;20035;-68
2022/10/31 04:16:49;;;;;;;16.17;11.23;;;11.20;99.90;;;;;;5113469;28;20071;-68
2022/10/31 04:19:15;;;;;;;14.55;10.20;;;11.20;99.90;;;;;;5113629;28;20135;-68
2022/10/31 04:21:43;;;;;;;15.43;10.80;;;11.10;99.90;;;;;;5113357;28;20039;-68
2022/10/31 04:24:09;;;;;;;13.43;11.20;;;11.20;99.90;;;;;;5113015;28;20054;-68
2022/10/31 04:26:35;;;;;;;16.52;12.43;;;11.10;99.90;;;;;;5113129;28;20054;-68
2022/10/31 04:29:00;;;;;;;17.95;11.90;;;11.10;99.90;;;;;;5113457;28;20039;-68
2022/10/31 04:31:26;;;;;;;16.50;11.65;;;11.10;99.90;;;;;;5113461;28;20046;-68
2022/10/31 04:33:52;;;;;;;16.45;11.10;;;11.10;99.90;;;;;;5113166;28;20446;-68
2022/10/31 04:36:18;;;;;;;17.00;11.77;;;11.10;99.90;;;;;;5113383;28;20036;-68
2022/10/31 04:38:43;;;;;;;16.85;11.38;;;11.10;99.90;;;;;;5113084;28;20412;-68
2022/10/31 04:41:09;;;;;;;17.00;12.27;;;11.10;99.90;;;;;;5112851;28;20046;-68
2022/10/31 04:43:34;;;;;;;17.80;12.32;;;11.00;99.90;;;;;;5096019;28;20043;-68
2022/10/31 04:46:00;;;;;;;17.67;11.75;;;11.00;99.90;;;;;;5112846;28;20156;-68
2022/10/31 04:48:26;;;;;;;15.32;11.55;;;11.00;99.90;;;;;;5112949;28;20032;-68
2022/10/31 04:50:51;;;;;;;14.43;10.95;;;11.00;99.90;;;;;;5114280;28;20088;-68
2022/10/31 04:53:17;;;;;;;18.13;11.88;;;11.00;99.90;;;;;;5112808;28;20115;-68
2022/10/31 04:55:42;;;;;;;16.17;10.73;;;11.00;99.90;;;;;;5114054;28;20047;-68
2022/10/31 04:58:08;;;;;;;18.63;12.07;;;10.90;99.90;;;;;;5113037;28;20188;-68
2022/10/31 05:00:33;;;;;;;17.05;11.60;;;10.90;99.90;;;;;;5112879;28;20449;-68
2022/10/31 05:02:59;;;;;;;15.18;11.55;;;10.90;99.90;;;;;;5112896;28;20563;-68
2022/10/31 05:05:29;;;;;;;12.73;9.05;;;10.80;99.90;;;;;;5113832;28;20494;-68
2022/10/31 05:07:55;;;;;;;13.77;9.20;;;10.80;99.90;;;;;;5112586;28;20040;-68
2022/10/31 05:10:23;;;;;;;11.10;8.98;;;10.70;99.90;;;;;;5112718;28;20036;-68
2022/10/31 05:12:52;;;;;;;15.45;10.10;;;10.70;99.90;;;;;;5112805;28;20043;-68
2022/10/31 05:15:21;;;;;;;13.52;8.88;;;10.70;99.90;;;;;;5112734;28;20487;-68
2022/10/31 05:17:47;;;;;;;13.93;8.00;;;10.60;99.90;;;;;;5112674;28;20047;-68
2022/10/31 05:20:14;;;;;;;15.13;9.50;;;10.60;99.90;;;;;;5112374;28;20446;-68
2022/10/31 05:22:51;;;;;;;13.55;10.50;;;10.60;99.90;;;;;;5112392;28;20075;-68
2022/10/31 05:25:17;;;;;;;15.27;10.35;;;10.60;99.90;;;;;;5112615;28;20047;-68
2022/10/31 05:27:45;;;;;;;15.57;11.55;;;10.60;99.90;;;;;;5112342;28;20497;-68
2022/10/31 05:30:13;;;;;;;18.90;12.88;;;10.60;99.90;;;;;;5112543;28;20484;-68
2022/10/31 05:32:44;;;;;;;18.30;11.75;;;10.60;99.90;;;;;;5112305;28;20408;-68
2022/10/31 05:35:12;;;;;;;16.15;12.32;;;10.70;99.90;;;;;;5112582;28;20051;-68
2022/10/31 05:37:38;;;;;;;15.25;11.85;;;10.70;99.90;;;;;;5114684;28;20039;-68
2022/10/31 05:40:05;;;;;;;15.85;11.80;;;10.60;99.90;;;;;;5116511;28;20050;-68
2022/10/31 05:42:31;;;;;;;17.75;11.75;;;10.60;99.90;;;;;;5116381;28;20035;-68
2022/10/31 05:44:57;;;;;;;19.55;12.07;;;10.60;99.90;;;;;;5116629;28;20043;-68
2022/10/31 05:47:22;;;;;;;13.10;10.80;;;10.60;99.90;;;;;;5116323;28;20101;-68
2022/10/31 05:49:48;;;;;;;14.52;10.73;;;10.50;99.90;;;;;;5116599;28;20061;-68
2022/10/31 05:52:14;;;;;;;14.30;11.75;;;10.50;99.90;;;;;;5116315;28;20479;-68
2022/10/31 05:54:40;;;;;;;15.60;10.13;;;10.50;99.90;;;;;;5117533;28;20555;-68
2022/10/31 05:57:05;;;;;;;18.10;11.77;;;10.40;99.90;;;;;;5116495;28;20131;-68
2022/10/31 05:59:31;;;;;;;17.65;12.18;;;10.40;99.90;;;;;;5099189;28;20051;-68
2022/10/31 06:01:57;;;;;;;15.57;11.52;;;10.40;99.90;;;;;;5116154;28;20054;-68
2022/10/31 06:04:22;;;;;;;15.63;12.15;;;10.30;99.90;;;;;;5117336;28;20039;-68
2022/10/31 06:06:48;;;;;;;17.38;12.43;;;10.40;99.90;;;;;;5117162;28;20043;-68
2022/10/31 06:09:14;;;;;;;16.05;11.90;;;10.40;99.90;;;;;;5116155;28;20046;-68
2022/10/31 06:11:39;;;;;;;14.27;11.45;;;10.40;99.90;;;;;;5115942;28;20116;-68
2022/10/31 06:14:05;;;;;;;15.80;10.95;;;10.40;99.90;;;;;;5115880;28;20043;-68
2022/10/31 06:16:31;;;;;;;18.92;11.88;;;10.40;99.90;;;;;;5116141;28;20047;-68
2022/10/31 06:18:56;;;;;;;15.60;11.32;;;10.30;99.90;;;;;;5117325;28;20035;-68
2022/10/31 06:21:22;;;;;;;14.90;10.15;;;10.30;99.90;;;;;;5115667;28;20058;-68
2022/10/31 06:23:47;;;;;;;11.52;9.18;;;10.30;99.90;;;;;;5115710;28;20040;-68
2022/10/31 06:26:13;;;;;;;11.65;8.13;;;10.20;99.90;;;;;;5115728;28;20050;-68
2022/10/31 06:28:38;;;;;;;14.70;9.25;;;10.20;99.90;;;;;;5115874;28;20373;-68
2022/10/31 06:31:04;;;;;;;11.40;8.90;;;10.20;99.90;;;;;;5115549;28;20503;-68
2022/10/31 06:33:30;;;;;;;15.27;9.27;;;10.20;99.90;;;;;;5115758;28;20114;-68
2022/10/31 06:35:55;;;;;;;12.52;10.32;;;10.20;99.90;;;;;;5115768;28;20095;-68
2022/10/31 06:38:21;;;;;;;12.77;10.25;;;10.20;99.90;;;;;;5115459;28;20407;-68
2022/10/31 06:40:46;;;;;;;14.30;11.35;;;10.20;99.90;;;;;;5098454;28;20055;-68
2022/10/31 06:43:14;;;;;;;13.60;10.40;;;10.20;99.90;;;;;;5115645;28;20051;-68
2022/10/31 06:45:39;;;;;;;14.18;10.23;;;10.20;99.90;;;;;;5115230;28;20040;-68
2022/10/31 06:48:06;;;;;;;11.77;9.60;;;10.20;99.90;;;;;;5114739;28;20046;-68
2022/10/31 06:50:31;;;;;;;13.93;9.25;;;10.30;99.90;;;;;;5115114;28;20039;-68
2022/10/31 06:52:58;;;;;;;16.75;10.77;;;10.20;99.90;;;;;;5115110;28;20399;-68
2022/10/31 06:55:25;;;;;;;16.20;10.77;;;10.20;99.90;;;;;;5115117;28;20039;-68
2022/10/31 06:57:51;;;;;;;13.05;11.05;;;10.20;99.90;;;;;;5115318;28;20062;-68
2022/10/31 07:00:17;;;;;;;16.38;10.32;;;10.20;99.90;;;;;;5114922;28;20136;-68
2022/10/31 07:02:42;;;;;;;13.95;10.68;;;10.20;99.90;;;;;;5114977;28;20069;-68
2022/10/31 07:05:08;;;;;;;14.85;11.32;;;10.20;99.90;;;;;;5114823;28;20118;-68
2022/10/31 07:07:33;;;;;;;12.23;10.32;;;10.20;99.90;;;;;;5097872;28;20118;-68
2022/10/31 07:09:59;;;;;;;12.52;10.13;;;10.20;99.90;;;;;;5114763;28;20044;-68
2022/10/31 07:12:24;;;;;;;15.10;11.75;;;10.20;99.90;;;;;;5114740;28;20046;-68
2022/10/31 07:14:50;;;;;;;12.40;10.15;;;10.20;99.90;;;;;;5114719;28;20052;-68
2022/10/31 07:17:15;;;;;;;13.55;11.13;;;10.20;99.90;;;;;;5114689;28;20046;-68
2022/10/31 07:19:41;;;;;;;12.15;10.18;;;10.30;99.90;;;;;;5115817;28;20047;-68
2022/10/31 07:22:06;;;;;;;12.05;10.07;;;10.30;99.90;;;;;;5114619;28;20044;-68
2022/10/31 07:24:32;;;;;;;15.30;10.00;;;10.30;99.90;;;;;;5114474;28;20047;-68
2022/10/31 07:26:58;;;;;;;14.10;11.45;;;10.30;99.90;;;;;;5114392;28;20043;-68
2022/10/31 07:29:23;;;;;;;16.13;11.70;;;10.30;99.90;;;;;;5114446;28;20040;-68
2022/10/31 07:31:49;;;;;;;14.20;11.98;;;10.40;99.90;;;;;;5114360;28;20031;-68
2022/10/31 07:34:14;;;;;;;13.07;10.80;;;10.40;99.90;;;;;;5114352;28;20040;-69
2022/10/31 07:36:40;;;;;;;13.07;11.00;;;10.40;99.90;;;;;;5115812;28;20043;-68
2022/10/31 07:39:05;;;;;;;12.93;11.25;;;10.50;99.90;;;;;;5115459;28;20075;-68
2022/10/31 07:41:31;;;;;;;16.58;11.02;;;10.50;99.90;;;;;;5114173;28;20180;-68
2022/10/31 07:43:56;;;;;;;13.50;11.48;;;10.50;99.90;;;;;;5115463;28;20042;-68
2022/10/31 07:46:22;;;;;;;15.32;12.15;;;10.60;99.90;;;;;;5114026;28;20207;-68
2022/10/31 07:48:47;;;;;;;17.90;11.73;;;10.60;99.90;;;;;;5114101;28;20035;-68
2022/10/31 07:51:13;;;;;;;16.13;12.23;;;10.70;99.90;;;;;;5113984;28;20032;-68
2022/10/31 07:53:38;;;;;;;15.30;11.30;;;10.70;99.90;;;;;;5115160;28;20110;-68
2022/10/31 07:56:04;;;;;;;14.07;12.10;;;10.80;99.90;;;;;;5113948;28;20126;-68
2022/10/31 07:58:30;;;;;;;15.60;12.10;;;10.80;99.90;;;;;;5115154;28;20118;-68
2022/10/31 08:00:57;;;;;;;14.20;12.20;;;10.90;99.90;;;;;;5112965;28;20062;-68
2022/10/31 08:03:23;;;;;;;17.63;13.70;;;10.90;99.90;;;;;;5115093;28;20484;-68
2022/10/31 08:05:48;;;;;;;17.08;13.25;;;10.90;99.90;;;;;;5115324;28;20035;-68
2022/10/31 08:08:14;;;;;;;19.15;12.60;;;11.00;99.90;;;;;;5113639;28;20031;-68
2022/10/31 08:10:40;;;;;;;20.80;13.18;;;11.10;99.90;;;;;;5113568;28;20046;-67
2022/10/31 08:13:11;;;;;;;17.05;12.40;;;11.10;99.90;;;;;;5113609;28;20119;-67
2022/10/31 08:15:39;;;;;;;13.32;11.85;;;11.20;99.90;;;;;;5114807;28;20043;-67
2022/10/31 08:18:13;;;;;;;16.55;12.32;;;11.20;99.90;;;;;;5113495;28;20126;-67
2022/10/31 08:20:40;;;;;;;15.43;12.43;;;11.30;99.90;;;;;;5113402;28;20039;-67
2022/10/31 08:23:05;;;;;;;15.45;11.75;;;11.40;99.90;;;;;;5113409;28;20096;-67
2022/10/31 08:25:33;;;;;;;17.80;13.48;;;11.50;99.90;;;;;;5113346;28;20051;-68
2022/10/31 08:27:58;;;;;;;14.18;11.15;;;11.50;99.90;;;;;;5113408;28;20040;-68
2022/10/31 08:30:27;;;;;;;16.50;12.60;;;11.60;99.90;;;;;;5113168;28;20407;-67
2022/10/31 08:33:02;;;;;;;17.00;15.00;;;11.60;99.90;;;;;;5113457;28;20039;-67
2022/10/31 08:35:27;;;;;;;17.55;13.93;;;11.80;99.90;;;;;;5113117;28;20043;-67
2022/10/31 08:37:55;;;;;;;21.35;15.00;;;11.80;99.90;;;;;;5113480;28;20039;-68
2022/10/31 08:40:20;;;;;;;19.88;15.00;;;11.90;99.90;;;;;;5114461;28;20040;-67
2022/10/31 08:42:46;;;;;;;21.02;16.15;;;12.00;99.90;;;;;;5114182;28;20492;-67
2022/10/31 08:45:11;;;;;;;21.58;16.58;;;12.10;99.90;;;;;;5112924;28;20122;-67
2022/10/31 08:47:38;;;;;;;19.75;16.02;;;12.20;99.90;;;;;;5113338;28;20044;-67
2022/10/31 08:50:04;;;;;;;20.88;16.05;;;12.30;99.90;;;;;;5114356;28;20061;-67
2022/10/31 08:52:29;;;;;;;20.38;15.50;;;12.30;99.90;;;;;;5113071;28;20050;-68
2022/10/31 08:54:55;;;;;;;16.70;14.75;;;12.30;99.90;;;;;;5112818;28;20468;-67
2022/10/31 08:57:20;;;;;;;18.30;15.35;;;12.40;99.90;;;;;;5114282;28;20396;-67
2022/10/31 08:59:46;;;;;;;19.23;15.13;;;12.40;99.90;;;;;;5112702;28;20526;-70
2022/10/31 09:02:11;;;;;;;20.45;16.60;;;12.40;99.90;;;;;;5112710;28;20043;-68
2022/10/31 09:04:37;;;;;;;19.80;16.27;;;12.50;99.90;;;;;;5112696;28;20126;-68
2022/10/31 09:07:03;;;;;;;21.45;16.13;;;12.50;99.90;;;;;;5112601;28;20092;-68
2022/10/31 09:09:28;;;;;;;24.20;17.77;;;12.60;99.90;;;;;;5112565;28;20075;-68
2022/10/31 09:11:54;;;;;;;23.83;19.02;;;12.70;99.90;;;;;;5112686;28;20039;-68
2022/10/31 09:14:19;;;;;;;22.05;17.13;;;12.70;99.90;;;;;;5112472;28;20404;-68
2022/10/31 09:16:45;;;;;;;22.30;16.27;;;12.70;99.90;;;;;;5112471;28;20051;-68
2022/10/31 09:19:10;;;;;;;24.88;19.13;;;12.70;99.90;;;;;;5112635;28;20047;-68
2022/10/31 09:21:36;;;;;;;27.48;19.98;;;12.80;99.90;;;;;;5114212;28;20042;-68
2022/10/31 09:24:01;;;;;;;22.05;18.85;;;12.90;99.90;;;;;;5113642;28;20075;-68
2022/10/31 09:26:27;;;;;;;26.45;20.30;;;13.00;99.90;;;;;;5112239;28;20495;-68
2022/10/31 09:28:52;;;;;;;27.83;19.95;;;13.10;99.90;;;;;;5112310;28;20050;-68
2022/10/31 09:31:18;;;;;;;24.20;19.05;;;13.10;99.90;;;;;;5112527;28;20047;-68
2022/10/31 09:33:43;;;;;;;23.35;18.92;;;13.10;99.90;;;;;;5112319;28;20434;-68
2022/10/31 09:36:09;;;;;;;23.58;19.30;;;13.20;99.90;;;;;;5112322;28;20067;-68
2022/10/31 09:38:34;;;;;;;26.10;19.42;;;13.10;99.90;;;;;;5112277;28;20069;-69
2022/10/31 09:41:28;;;;;;;29.00;20.77;;;13.10;99.90;;;;;;5113478;28;20102;-68
2022/10/31 09:44:20;;;;;;;29.20;20.38;;;13.10;99.90;;;;;;5112556;28;20065;-68
2022/10/31 09:47:22;;;;;;;22.83;19.10;;;13.10;99.90;;;;;;5112195;28;20075;-68
2022/10/31 09:50:06;;;;;;;26.30;22.00;;;13.10;99.90;;;;;;5112065;28;20039;-68
2022/10/31 09:52:35;;;;;;;28.38;20.73;;;13.10;99.90;;;;;;5112185;28;20047;-68
2022/10/31 09:55:24;;;;;;;32.83;21.88;;;13.20;99.90;;;;;;5112129;28;20110;-68
2022/10/31 09:57:50;;;;;;;27.17;20.58;;;13.30;99.90;;;;;;5112168;28;20160;-68
2022/10/31 10:00:19;;;;;;;28.15;21.35;;;13.40;99.90;;;;;;5113524;28;20120;-68
2022/10/31 10:02:48;;;;;;;29.13;21.85;;;13.40;99.90;;;;;;5113308;28;20065;-68
2022/10/31 10:05:21;;;;;;;26.10;20.63;;;13.50;99.90;;;;;;5111835;28;20110;-68
2022/10/31 10:08:01;;;;;;;;;;;13.50;99.90;;;;;;5113619;28;20051;-68
2022/10/31 10:10:34;;;;;;;27.63;21.45;;;13.50;99.90;;;;;;5112172;28;20398;-68
2022/10/31 10:13:12;;;;;;;28.73;21.52;;;13.50;99.90;;;;;;5111982;28;20049;-69
2022/10/31 10:16:01;;;;;;;26.55;20.00;;;13.50;99.90;;;;;;5111942;28;20044;-68
2022/10/31 10:18:41;;;;;;;28.60;21.75;;;13.60;99.90;;;;;;5111798;28;20043;-68
2022/10/31 10:21:18;;;;;;;24.33;19.80;;;13.60;99.90;;;;;;5111877;28;20071;-68
2022/10/31 10:24:18;;;;;;;24.67;19.85;;;13.70;99.90;;;;;;5114350;28;20082;-68
2022/10/31 10:26:59;;;;;;;25.13;18.77;;;13.80;99.90;;;;;;5115903;28;20047;-68
2022/10/31 10:29:40;;;;;;;21.13;18.52;;;13.80;99.90;;;;;;5116070;28;20089;-68
2022/10/31 10:32:16;;;;;;;20.00;17.63;;;13.90;99.90;;;;;;5115878;28;20446;-68
2022/10/31 10:34:49;;;;;;;24.80;18.63;;;14.00;99.90;;;;;;5117165;28;20040;-68
2022/10/31 10:37:28;;;;;;;;;;;14.10;99.90;;;;;;5117107;28;20499;-69
2022/10/31 10:40:07;;;;;;;21.25;17.08;;;14.20;99.90;;;;;;5115187;28;19919;-69
2022/10/31 10:48:12;;;;;;;21.52;15.27;;;14.50;99.90;;;;;;5116797;28;20039;-68
2022/10/31 10:50:46;;;;;;;19.92;15.27;;;14.60;99.90;;;;;;5115447;28;20502;-68
2022/10/31 10:53:59;;;;;;;17.95;14.32;;;14.80;99.90;;;;;;5115156;28;20126;-69
2022/10/31 10:56:40;;;;;;;16.50;12.55;;;14.90;99.90;;;;;;5116657;28;20046;-68
2022/10/31 10:59:12;;;;;;;19.65;13.40;;;15.40;99.90;;;;;;5116536;28;20077;-68
2022/10/31 11:01:40;;;;;;;15.75;12.02;;;16.10;99.90;;;;;;5115059;28;20054;-68
2022/10/31 11:04:23;;;;;;;17.73;13.05;;;16.60;99.90;;;;;;5097946;28;20130;-69
2022/10/31 11:07:09;;;;;;;14.48;11.27;;;16.90;99.90;;;;;;5114872;28;20047;-69
2022/10/31 11:09:36;;;;;;;14.40;10.80;;;17.40;99.90;;;;;;5115128;28;20039;-69
2022/10/31 11:12:30;;;;;;;12.20;9.95;;;17.70;99.90;;;;;;5115077;28;20050;-69
2022/10/31 11:15:00;;;;;;;13.95;10.55;;;17.90;99.90;;;;;;5101587;28;20052;-69
2022/10/31 11:17:33;;;;;;;16.98;10.10;;;18.00;99.90;;;;;;5114682;28;20043;-69
2022/10/31 11:20:19;;;;;;;13.40;9.25;;;18.10;99.90;;;;;;5114611;28;20504;-69
2022/10/31 11:22:47;;;;;;;14.15;9.25;;;18.00;99.90;;;;;;5097442;28;20078;-69
2022/10/31 11:25:19;;;;;;;10.65;8.43;;;18.00;99.90;;;;;;5114487;28;20089;-69
2022/10/31 11:27:58;;;;;;;11.18;8.60;;;17.90;99.90;;;;;;5114617;28;20399;-69
2022/10/31 11:30:23;;;;;;;14.40;8.30;;;17.60;99.90;;;;;;5115691;28;20506;-68
2022/10/31 11:32:53;;;;;;;11.73;7.75;;;17.30;99.90;;;;;;5114765;28;20119;-68
2022/10/31 11:35:22;;;;;;;12.82;7.97;;;17.10;99.90;;;;;;5113062;28;20453;-68
2022/10/31 11:37:51;;;;;;;13.75;7.47;;;16.90;99.90;;;;;;5114352;28;20089;-68
2022/10/31 11:40:19;;;;;;;10.95;7.03;;;16.70;99.90;;;;;;5115745;28;20039;-68
2022/10/31 11:42:45;;;;;;;12.25;7.28;;;16.60;99.90;;;;;;5114223;28;20040;-69
2022/10/31 11:45:23;;;;;;;14.98;7.72;;;16.60;99.90;;;;;;5114138;28;20036;-69
2022/10/31 11:47:50;;;;;;;11.77;7.70;;;16.50;99.90;;;;;;5114138;28;20042;-68
2022/10/31 11:50:22;;;;;;;11.48;7.15;;;16.40;99.90;;;;;;5114431;28;20047;-68
2022/10/31 11:52:49;;;;;;;12.75;8.25;;;16.40;99.90;;;;;;5114123;28;20119;-68
2022/10/31 11:55:33;;;;;;;12.88;8.35;;;16.30;99.90;;;;;;5113989;28;20500;-68
2022/10/31 11:57:59;;;;;;;13.32;8.30;;;16.20;99.90;;;;;;5113987;28;20044;-68
2022/10/31 12:00:40;;;;;;;14.32;8.57;;;16.20;99.90;;;;;;5113760;28;20038;-69
2022/10/31 12:03:22;;;;;;;11.70;8.63;;;16.20;99.90;;;;;;5113851;28;20047;-68
2022/10/31 12:06:02;;;;;;;15.90;9.45;;;16.40;99.90;;;;;;5113928;28;20449;-68
2022/10/31 12:08:34;;;;;;;13.35;8.75;;;16.30;99.90;;;;;;5113739;28;20042;-68
2022/10/31 12:11:18;;;;;;;12.20;8.37;;;16.20;99.90;;;;;;5096650;28;20039;-69
2022/10/31 12:14:31;;;;;;;13.63;8.13;;;16.20;99.90;;;;;;5113690;28;20281;-68
2022/10/31 12:17:03;;;;;;;16.17;8.65;;;16.20;99.90;;;;;;5016059;28;20118;-68
2022/10/31 12:20:00;;;;;;;17.05;8.40;;;16.20;99.90;;;;;;5015737;28;20060;-68
2022/10/31 12:23:02;;;;;;;14.32;7.70;;;16.50;99.90;;;;;;5015678;28;20120;-69
2022/10/31 12:25:36;;;;;;;13.20;8.07;;;16.60;99.90;;;;;;5015617;28;20041;-68
2022/10/31 12:28:14;;;;;;;13.07;7.20;;;16.50;99.90;;;;;;5032000;28;20046;-68
2022/10/31 12:31:13;;;;;;;13.30;6.45;;;16.40;99.90;;;;;;5031900;28;20037;-68
2022/10/31 12:33:47;;;;;;;13.13;6.93;;;16.40;99.90;;;;;;5015546;28;20076;-68
2022/10/31 12:36:32;;;;;;;12.52;5.65;;;16.40;99.90;;;;;;5015316;28;20050;-68
2022/10/31 12:39:00;;;;;;;9.48;4.78;;;16.50;99.90;;;;;;5031831;28;20048;-68
2022/10/31 12:41:41;;;;;;;8.93;4.60;;;16.60;99.90;;;;;;5015147;28;20107;-68
2022/10/31 12:44:31;;;;;;;11.80;4.40;;;16.70;99.90;;;;;;5015232;28;20128;-68
2022/10/31 12:47:11;;;;;;;9.80;5.28;;;16.60;99.90;;;;;;5030641;28;20457;-68
2022/10/31 12:49:52;;;;;;;10.95;4.60;;;16.50;99.90;;;;;;5112933;28;20050;-68
2022/10/31 12:52:50;;;;;;;8.52;3.80;;;16.50;99.90;;;;;;5113104;28;20433;-68